x

9410840 - Santa Monica Pier (icac1) Weather Station

11:54 - Fri 28th Nov 2014 All times are PST. -8 hours from GMT.

  • Wind
    2mph, 3mph gusts
  • Sea Temp 65°f
  • Luft Temp 59°f
  • Sea Pressure 1012.3mb
  • 9410840 - Santa Monica Pier
  • 9410840 - Santa Monica Pier

More Historic Weather Station data

Upgrade to MSW Pro to gain access to the past 30 days of data for over 8000 Wavebouys and Weather Stations around the globe.

Join Pro

Comparision Forecast

View Surf forecast
   
Fr 11/28 11:54 2 3 mph 1012.3mb 65f 59f
11:48 3
mph
1012.3mb 65f 59f
11:42 2 5 mph 1012.3mb 65f 59f
11:36 5 6 mph 1012.4mb 65f 59f
11:30 3 5 mph 1012.5mb 65f 60f
11:24 3 5 mph 1012.5mb 65f 61f
11:18 3
mph
1012.5mb 65f 60f
11:12 2 3 mph 1012.5mb 65f 60f
11:06 2 3 mph 1012.6mb 65f 60f
11:00 1 2 mph 1012.7mb 65f 60f
10:54 1 2 mph 1012.7mb 65f 60f
10:48  -  1 mph 1012.7mb 65f 60f
10:42  -  mph 1012.7mb 65f 60f
10:36  -  2 mph 1012.8mb 65f 60f
10:30  -  2 mph 1012.8mb 65f 61f
10:24  -  2 mph 1012.8mb 65f 61f
10:18 1 2 mph 1012.9mb 65f 61f
10:12 2
mph
1012.9mb 65f 62f
10:06  -  1 mph 1012.8mb 65f 61f
10:00  -  2 mph 1012.8mb 65f 61f
9:54  -  2 mph 1012.8mb 65f 60f
9:48 2
mph
1012.9mb 65f 60f
9:42 1 3 mph 1012.8mb 65f 63f
9:36 1 2 mph 1012.8mb 65f 61f
9:30 2 3 mph 1012.9mb 65f 63f
9:24 2
mph
1012.8mb 65f 62f
9:18  -  1 mph 1012.8mb 65f 62f
9:12  -  mph 1012.8mb 65f 62f
9:06  -  2 mph 1012.8mb 65f 63f
9:00 1 2 mph 1012.8mb 65f 64f
8:54 2 5 mph 1012.7mb 65f 64f
8:48 5 6 mph 1012.6mb 65f 64f
8:42 3 5 mph 1012.6mb 65f 64f
8:36 3 6 mph 1012.6mb 65f 64f
8:30 5 6 mph 1012.6mb 65f 64f
8:24 5 6 mph 1012.6mb 65f 64f
8:18 3 5 mph 1012.6mb 65f 64f
8:12 3 5 mph 1012.6mb 65f 64f
8:06 3
mph
1012.6mb 65f 64f
8:00 2 3 mph 1012.6mb 65f 64f
7:54 3
mph
1012.7mb 65f 64f
7:48 2 3 mph 1012.6mb 65f 63f
7:42 3
mph
1012.7mb 65f 61f
7:36 3 5 mph 1012.6mb 65f 62f
7:30 3 5 mph 1012.6mb 65f 62f
7:24  -  1 mph 1012.6mb 65f 63f
7:18 1
mph
1012.5mb 65f 63f
7:12 1
mph
1012.5mb 65f 63f
7:06  -  mph 1012.5mb 65f 63f
7:00  -  2 mph 1012.5mb 65f 63f
6:54  -  2 mph 1012.6mb 65f 63f
6:48  -  1 mph 1012.5mb 65f 63f
6:42  -  1 mph 1012.5mb 65f 64f
6:36  -  1 mph 1012.5mb 65f 63f
6:30 1 2 mph 1012.5mb 65f -
6:24 2 3 mph 1012.5mb 65f -
6:18 1 2 mph 1012.5mb 65f 64f
6:12 1 3 mph 1012.5mb 65f 64f
6:06 2 3 mph 1012.5mb 65f 64f
6:00 2 3 mph 1012.4mb 65f 64f
5:54 1 2 mph 1012.4mb 65f 64f
5:48 2 3 mph 1012.3mb 65f 65f
5:42 2 3 mph 1012.3mb 65f 65f
5:36 1 3 mph 1012.3mb 66f 65f
5:30  -  2 mph 1012.3mb 66f 65f
5:24  -  1 mph 1012.3mb 66f 65f
5:18 2
mph
1012.3mb 66f 65f
5:12 2 3 mph 1012.2mb 66f 65f
5:06 2 3 mph 1012.2mb 66f 66f
5:00 3 6 mph 1012.3mb 66f 66f
4:54 5 6 mph 1012.4mb 66f 66f
4:48 3 5 mph 1012.3mb 66f 66f
4:42 3
mph
1012.3mb 66f 67f
4:36 2 3 mph 1012.3mb 66f 67f
4:30 3 6 mph 1012.4mb 66f 67f
4:24 5 6 mph 1012.4mb 66f 67f
4:18 5 7 mph 1012.5mb 66f 67f
4:12 3 6 mph 1012.4mb 65f 67f
4:06 3 6 mph 1012.5mb 65f 67f
4:00 5 6 mph 1012.5mb 65f 67f
3:54 6
mph
1012.6mb 65f 67f
3:48 6
mph
1012.6mb 65f 67f
3:42 5 6 mph 1012.5mb 65f 67f
3:36 6 7 mph 1012.6mb 65f 67f
3:30 6
mph
1012.6mb 65f 67f
3:24 6 7 mph 1012.6mb 65f 67f
3:18 6 7 mph 1012.7mb 65f 67f
3:12 6
mph
1012.7mb 65f 67f
3:06 6 7 mph 1012.7mb 65f 67f
3:00 6 7 mph 1012.7mb 65f 67f
2:54 6 7 mph 1012.7mb 65f 67f
2:48 6
mph
1012.7mb 65f 67f
2:42 5 6 mph 1012.7mb 65f 67f
2:36 5
mph
1012.7mb 65f 67f
2:30 5
mph
1012.8mb 65f 67f
2:24 5
mph
1012.8mb 65f 67f
2:18 5
mph
1012.9mb 65f 67f
2:12 3 5 mph 1012.9mb 65f 68f
2:06 5
mph
1013mb 65f 68f
2:00 3 5 mph 1013.1mb 65f 68f
1:54 5
mph
1013.1mb 65f 67f
1:48 3 5 mph 1013.1mb 65f 68f
1:42 5 6 mph 1013.2mb 65f 67f
1:36 5 6 mph 1013.3mb 65f 67f
1:30 5
mph
1013.3mb 65f 67f
1:24 3 5 mph 1013.3mb 65f 67f
1:18 5
mph
1013.3mb 65f 67f
1:12 5
mph
1013.4mb 65f 67f
1:06 5
mph
1013.5mb 65f 67f
1:00 5 6 mph 1013.6mb 65f 67f
12:54 5
mph
1013.7mb 65f 67f
12:48 5
mph
1013.8mb 65f 67f
12:42 3 5 mph 1013.9mb 65f 68f
12:36 5
mph
1014mb 65f 68f
12:30 3 5 mph 1014.1mb 65f 68f
12:24 3
mph
1014.2mb 65f 68f
12:18 3
mph
1014.2mb 65f 68f
12:12 2
mph
1014.3mb 65f 69f
12:06 2
mph
1014.4mb 65f 69f
12:00 2 3 mph 1014.5mb 65f 69f
11:54 2 3 mph 1014.5mb 65f 69f
11:48 2 3 mph 1014.6mb 65f 69f
11:42 1 3 mph 1014.7mb 65f 70f
11:36 1 2 mph 1014.9mb 65f 70f
11:24 1 6 mph 1015.1mb 65f 70f
11:18 7 8 mph 1015.2mb 65f 68f
11:12 8 9 mph 1015.2mb 65f 70f
11:06 9
mph
1015.3mb 65f 69f
11:00 8 9 mph 1015.4mb 65f 69f
10:54 6
mph
1015.5mb 65f 72f
10:48 6
mph
1015.6mb 65f 72f
10:42 6 7 mph 1015.6mb 64f 74f
10:36 6 7 mph 1015.7mb 64f 74f
10:30 5 7 mph 1015.7mb 64f 74f
10:24 6 8 mph 1015.7mb 64f 73f
10:18 7 9 mph 1015.8mb 64f 73f
10:12 7 9 mph 1015.9mb 64f 73f
10:06 7 8 mph 1016mb 64f 72f
10:00 6 7 mph 1016.1mb 64f 72f
9:54 5 7 mph 1016.1mb 64f 71f
9:48 6 9 mph 1016.1mb 64f 71f
9:42 8 10 mph 1016.2mb 64f 70f
9:36 7 8 mph 1016.2mb 64f 70f
9:30 5 7 mph 1016.2mb 64f 70f
9:24 6 8 mph 1016.2mb 64f 69f
9:18 5 8 mph 1016.1mb 64f 69f
9:12 6 8 mph 1016.1mb 64f 68f
9:06 3 6 mph 1016.2mb 64f 68f
9:00 2 3 mph 1016.2mb 64f 67f
8:54 2 3 mph 1016.1mb 64f 66f
8:48 2
mph
1016.2mb 64f 66f
8:42 1 2 mph 1016.2mb 64f 66f
8:36 1 2 mph 1016.2mb 64f 66f
8:30  -  1 mph 1016.1mb 64f 64f
8:24  -  2 mph 1016mb 64f 65f
8:18  -  1 mph 1015.9mb 64f 65f
8:12  -  2 mph 1015.9mb 64f 64f
8:06 1 2 mph 1015.8mb 64f 63f
8:00 1 3 mph 1015.8mb 64f 62f
7:54 3 5 mph 1015.7mb 64f 62f
7:48 3 6 mph 1015.7mb 64f 61f
7:42 6
mph
1015.7mb 64f 60f
7:36 5 6 mph 1015.6mb 64f 60f
7:30 2 3 mph 1015.5mb 64f 60f
7:24 2 5 mph 1015.5mb 64f 60f
7:18 2 3 mph 1015.5mb 64f 60f
7:12 2 3 mph 1015.6mb 64f 60f
7:06 2 6 mph 1015.6mb 64f 61f
7:00 5 6 mph 1015.5mb 64f 60f
6:54 5 6 mph 1015.5mb 64f 59f
6:48 5 6 mph 1015.5mb 64f 57f
6:42 3
mph
1015.4mb 64f 58f
6:36 3 5 mph 1015.4mb 64f 59f
6:30 3 6 mph 1015.3mb 64f 58f
6:24 3 5 mph 1015.4mb 64f 59f
6:18 3 5 mph 1015.3mb 64f 61f
6:12 5 6 mph 1015.4mb 64f 61f
6:06 5
mph
1015.4mb 64f 62f
6:00 2 3 mph 1015.3mb 64f 62f
5:54  -  2 mph 1015.4mb 64f 61f
5:48 1 2 mph 1015.3mb 64f 61f
5:42  -  1 mph 1015.3mb 64f 60f
5:36  -  2 mph 1015.3mb 64f 60f
5:30 1 2 mph 1015.2mb 64f 60f
5:24 1 5 mph 1015.2mb 64f 60f
5:18 3 5 mph 1015.1mb 64f 60f
5:12 3 5 mph 1015.1mb 65f 60f
5:06 2 6 mph 1015.1mb 65f 60f
5:00 7 8 mph 1015mb 65f 61f
4:54 7 10 mph 1015mb 65f 62f
4:48 8 9 mph 1015mb 65f 63f
4:42 7 8 mph 1015mb 65f 62f
4:36 7 9 mph 1015mb 65f 63f
4:30 7 8 mph 1015.1mb 65f 63f
4:24 6 7 mph 1015.1mb 65f 63f
4:18 5 6 mph 1015.2mb 65f 62f
4:12 5 6 mph 1015.2mb 65f 61f
4:06 5 6 mph 1015.2mb 65f 61f
4:00 5 6 mph 1015.2mb 65f 62f
3:54 3 5 mph 1015.3mb 65f 64f
3:48 3
mph
1015.3mb 65f 63f
3:42 2 3 mph 1015.4mb 65f 61f
3:36 2 3 mph 1015.4mb 65f 61f
3:30  -  mph 1015.5mb 65f 63f
3:24  -  1 mph 1015.5mb 65f 63f
3:18  -  1 mph 1015.5mb 65f 63f
3:12  -  1 mph 1015.5mb 65f 63f
3:06 1 2 mph 1015.5mb 65f 64f
3:00 1 2 mph 1015.6mb 65f 63f
2:54 1 2 mph 1015.6mb 65f 63f
2:48 1 2 mph 1015.6mb 65f 64f
2:42  -  1 mph 1015.6mb 65f 63f
2:36  -  1 mph 1015.6mb 65f 63f
2:30 1 2 mph 1015.6mb 65f 63f
2:24 2 3 mph 1015.6mb 65f 63f
2:18 3 5 mph 1015.7mb 65f 64f
2:12 3 5 mph 1015.7mb 65f 64f
2:06 3 5 mph 1015.6mb 65f 64f
2:00 3 6 mph 1015.6mb 65f 64f
1:54 3 5 mph 1015.6mb 65f 64f
1:48 3 5 mph 1015.6mb 65f 63f
1:42 2
mph
1015.6mb 65f 64f
1:36 1 3 mph 1015.6mb 65f 64f
1:30 3 5 mph 1015.6mb 65f 65f
1:24 3 6 mph 1015.7mb 65f 65f
1:18 5 6 mph 1015.7mb 65f 65f
1:12 6
mph
1015.7mb 65f 65f
1:06 6
mph
1015.7mb 65f 65f
1:00 5 6 mph 1015.7mb 65f 65f
12:54 5 6 mph 1015.8mb 65f 64f
12:48 5 6 mph 1015.8mb 65f 65f
12:42 3 5 mph 1015.8mb 65f 64f
12:36 3 5 mph 1015.8mb 65f 65f
12:30 2 3 mph 1015.8mb 65f 64f
12:24 2 3 mph 1015.9mb 65f 65f
12:18 3
mph
1015.9mb 65f 65f
12:12 2 3 mph 1015.9mb 65f 65f
12:06 3 5 mph 1016mb 65f 65f
12:00 3
mph
1016mb 65f 65f
Do 11/27 11:54 2 3 mph 1016mb 65f 65f
11:48 2 6 mph 1016.1mb 65f 65f
11:42 3 6 mph 1016.1mb 65f 66f
11:36 3 5 mph 1016.1mb 65f 65f
11:30 3
mph
1016.2mb 65f 64f
11:24 3 6 mph 1016.2mb 65f 65f
11:18 5 6 mph 1016.2mb 65f 65f
11:12 5 6 mph 1016.3mb 65f 65f
11:06 5 6 mph 1016.3mb 65f 64f
11:00 3 5 mph 1016.4mb 65f 64f
10:54 3 5 mph 1016.4mb 65f 65f
10:48 3 7 mph 1016.5mb 65f 65f
10:42 5 7 mph 1016.5mb 65f 65f
10:36 5 6 mph 1016.4mb 65f 65f
10:30 5 7 mph 1016.5mb 65f 65f
10:24 5 7 mph 1016.4mb 65f 65f
10:18 6 7 mph 1016.4mb 65f 65f
10:12 6 7 mph 1016.4mb 65f 64f
10:06 2 5 mph 1016.4mb 65f 64f
10:00 5 6 mph 1016.4mb 65f 65f
9:54 5 6 mph 1016.5mb 65f 65f
9:48 6 8 mph 1016.5mb 65f 65f
9:42 6 7 mph 1016.5mb 65f 65f
9:36 6
mph
1016.5mb 65f 65f
9:30 6
mph
1016.5mb 65f 66f
9:24 6 7 mph 1016.5mb 65f 66f
9:18 5 6 mph 1016.5mb 65f 65f
9:12 5 6 mph 1016.5mb 65f 65f
9:06 5 6 mph 1016.5mb 65f 65f
9:00 5 6 mph 1016.5mb 65f 65f
8:54 6 7 mph 1016.5mb 65f 65f
8:48 6 7 mph 1016.4mb 65f 65f
8:42 7
mph
1016.4mb 65f 65f
8:36 7 8 mph 1016.4mb 65f 65f
8:30 7 8 mph 1016.4mb 65f 65f
8:24 7
mph
1016.3mb 65f 65f
8:18 6
mph
1016.3mb 65f 65f
8:12 6
mph
1016.3mb 65f 65f
8:06 5 6 mph 1016.4mb 65f 65f
8:00 5 6 mph 1016.4mb 65f 66f
7:54 5 6 mph 1016.4mb 65f 66f
7:48 3 6 mph 1016.4mb 65f 66f
7:42 6
mph
1016.4mb 65f 66f
7:36 5 6 mph 1016.4mb 65f 66f
7:30 5 6 mph 1016.4mb 65f 66f
7:24 5
mph
1016.4mb 65f 66f
7:18 6
mph
1016.4mb 65f 66f
7:12 6
mph
1016.4mb 65f 66f
7:06 6
mph
1016.4mb 65f 66f
7:00 6
mph
1016.4mb 65f 66f
6:54 6
mph
1016.4mb 65f 66f
6:48 6
mph
1016.3mb 65f 66f
6:42 6
mph
1016.3mb 65f 66f
6:36 5 6 mph 1016.4mb 65f 66f
6:30 6
mph
1016.3mb 65f 66f
6:24 6
mph
1016.3mb 65f 66f
6:18 5 6 mph - 65f 66f
6:12 5
mph
- 65f 67f
6:06 5 6 mph - 65f 67f
6:00 5
mph
1016.2mb 65f 67f
5:54 5 6 mph 1016.2mb 65f 66f
5:48 6
mph
1016.2mb 65f 66f
5:42 5 6 mph 1016.2mb 65f 66f
5:36 5
mph
1016.2mb 65f 67f
5:30 5
mph
1016.2mb 65f 67f
5:24 3 5 mph 1016.2mb 65f 67f
5:18 2 3 mph 1016.1mb 65f 67f
5:12 1
mph
1016.1mb 65f 67f
5:06  -  1 mph 1016.1mb 65f 67f
5:00  -  mph 1016.1mb 65f 68f
4:54  -  1 mph 1016.1mb 65f 68f
4:48  -  2 mph 1016mb 65f 69f
4:42 2 3 mph 1016.1mb 65f 69f
4:36 3
mph
1016.1mb 65f 69f
4:30 3
mph
1016.1mb 65f 70f
4:24 3
mph
1016.2mb 65f 71f
4:18 2 5 mph 1016.2mb 65f 72f
4:12 2 3 mph 1016.2mb 65f 72f
4:00 2 5 mph 1016.2mb 65f 72f
3:54 5
mph
1016.2mb 65f 71f
3:48 3
mph
1016.2mb 65f 72f
3:42 1 2 mph 1016.2mb 65f 74f
3:36 1
mph
1016.3mb 65f 73f
3:30 1
mph
1016.3mb 65f 73f
3:24 1
mph
1016.3mb 65f 73f
3:18  -  1 mph 1016.3mb - -
3:12  -  1 mph 1016.3mb - -
3:06 1
mph
1016.3mb - -
3:00 1
mph
1016.3mb 65f 73f
2:54  -  1 mph 1016.3mb 65f 73f
2:48 1 2 mph 1016.3mb 65f 72f
2:42 1
mph
1016.3mb 65f 74f
2:36  -  1 mph 1016.4mb 65f 75f
2:30  -  1 mph 1016.4mb 65f 76f
2:24  -  1 mph 1016.4mb 65f 74f
2:18  -  1 mph 1016.4mb 65f 74f
2:12  -  1 mph 1016.5mb 65f 74f
2:06  -  1 mph 1016.5mb 65f 73f
2:00 1 2 mph 1016.5mb 65f 72f
1:54 2
mph
1016.5mb 65f 71f
1:48 2
mph
1016.6mb 65f 71f
1:42 2
mph
1016.6mb 64f 71f
1:36 2 3 mph 1016.6mb 64f 71f
1:30 2 3 mph 1016.7mb 64f 71f
1:24 5
mph
1016.7mb 64f 70f
1:18 5
mph
1016.8mb 64f 70f
1:12 3 5 mph 1016.9mb 64f 70f
1:06 3 5 mph 1017mb 64f 70f
1:00 5 6 mph 1017.1mb 64f 70f
12:54 6
mph
1017.2mb 64f 69f
12:48 5 6 mph 1017.3mb 64f 70f
12:42 6 7 mph 1017.3mb 64f 69f
12:36 5 6 mph 1017.4mb 64f 70f
12:30 5 6 mph 1017.5mb 65f 70f
12:24 5 6 mph 1017.6mb 65f 70f
12:18 6
mph
1017.7mb 65f 69f
12:12 5
mph
1017.8mb 65f 70f
12:06 3 5 mph 1017.8mb 64f 70f
12:00 5
mph
1018mb 64f 70f
11:54 3
mph
1018.1mb 64f 70f
11:48 3
mph
1018.2mb 64f 70f
11:42 5
mph
1018.2mb 64f 70f
11:36 5 6 mph 1018.3mb 64f 70f
11:30 6
mph
1018.4mb 64f 70f
11:24 5 6 mph 1018.5mb 64f 71f
11:18 6 7 mph 1018.7mb 64f 71f
11:12 6 7 mph 1018.7mb 64f 70f
11:06 5 6 mph 1018.8mb 64f 69f
11:00 5 6 mph 1018.9mb 64f 69f
10:54 5 6 mph 1019mb 64f 70f
10:48 5 6 mph 1019.1mb 64f 70f
10:42 5 6 mph 1019.2mb 64f 70f
10:36 5 6 mph 1019.3mb 64f 70f
10:30 6 7 mph 1019.3mb 64f 69f
10:24 6 7 mph 1019.4mb 64f 69f
10:18 7 8 mph 1019.5mb 64f 70f
10:12 5
mph
1019.6mb 64f 69f
10:06 2 5 mph 1019.7mb 64f 70f
10:00 5
mph
1019.7mb 64f 70f
9:54  -  2 mph 1019.8mb 64f 70f
9:48 3 6 mph 1019.8mb 64f 69f
9:42 6 7 mph 1019.8mb 64f 69f
9:36 6 8 mph 1019.8mb 64f 68f
9:30 8
mph
1019.7mb 64f 67f
9:24 7 10 mph 1019.7mb 64f 67f
9:18 9 10 mph 1019.7mb 64f 67f
9:12 9 11 mph 1019.7mb 64f 68f
9:06 7 8 mph 1019.7mb 64f 69f
9:00 6 7 mph 1019.7mb 64f 69f
8:54 3 6 mph 1019.7mb 64f 74f
8:48 5 8 mph 1019.6mb 64f 73f
8:42 6 8 mph 1019.6mb 64f 77f
8:36 6 9 mph 1019.5mb 64f 76f
8:30 7 9 mph 1019.4mb 64f 76f
8:24 7 10 mph 1019.4mb 64f 76f
8:18 8 11 mph 1019.3mb 64f 76f
8:12 9 10 mph 1019.3mb 64f 75f
8:06 10 14 mph 1019.3mb 64f 75f
8:00 10 14 mph 1019.2mb 64f 74f
7:54 10 13 mph 1019.2mb 64f 73f
7:48 11 13 mph 1019.2mb 64f 73f
7:42 11 14 mph 1019.2mb 64f 72f
7:36 11 14 mph 1019.2mb 64f 72f
7:30 13 14 mph 1019.1mb 64f 71f
7:24 13 15 mph 1019.1mb 64f 71f
7:18 13 14 mph 1019.1mb 64f 70f
7:12 13 14 mph 1019.1mb 64f 70f
7:06 8 10 mph 1019.2mb 64f 69f
7:00 8 10 mph 1019.2mb 64f 68f
6:54 3 8 mph 1019.2mb 64f 66f
6:48 9 11 mph 1019.2mb 64f 67f
6:42 10 11 mph 1019.2mb 64f 68f
6:36 8 10 mph 1019.2mb 64f 67f
6:30 9 10 mph 1019.1mb 64f 67f
6:24 8 10 mph 1019.1mb 64f 65f
6:18 5 7 mph 1019.1mb 64f 65f
6:12 2 3 mph 1019.1mb 64f 66f
6:06 3 6 mph 1019mb 64f 65f
6:00 6 7 mph 1019mb 64f 65f
5:54 2 3 mph 1019mb 64f 65f
5:48 1 6 mph 1018.9mb 64f 65f
5:42 2 6 mph 1018.9mb 64f 65f
5:36 3 6 mph 1018.9mb 64f 66f
5:30 2 6 mph 1018.9mb 64f 66f
5:24 3 6 mph 1018.9mb 64f 66f
5:18 2 3 mph 1018.8mb 64f 65f
5:12 1 3 mph 1018.8mb 64f 65f
5:06  -  2 mph 1018.8mb 64f 65f
5:00  -  2 mph 1018.7mb 64f 65f
4:54 2
mph
1018.7mb 64f 65f
4:48 2 5 mph 1018.6mb 65f 65f
4:42 3 6 mph 1018.6mb 65f 65f
4:36 5 7 mph 1018.5mb 65f 65f
4:30 6 7 mph 1018.5mb 65f 64f
4:24 5 6 mph 1018.5mb 65f 65f
4:18 3 6 mph 1018.5mb 65f 65f
4:12 5 7 mph 1018.5mb 65f 66f
4:06 5 7 mph 1018.6mb 65f 66f
4:00 5 6 mph 1018.6mb 65f 66f
3:54 3 5 mph 1018.6mb 65f 67f
3:48 2 5 mph 1018.7mb 65f 67f
3:42 3 5 mph 1018.8mb 65f 66f
3:36  -  2 mph 1018.8mb 65f 67f
3:30 2
mph
1018.8mb 65f 67f
3:24  -  2 mph 1018.9mb 65f 66f
3:18 2
mph
1018.8mb 65f 67f
3:12 1 2 mph 1018.9mb 65f 66f
3:06 2 3 mph 1018.8mb 65f 67f
3:00  -  2 mph 1018.8mb 65f 67f
2:54 2
mph
1018.8mb 65f 67f
2:48 1 2 mph 1018.9mb 65f 66f
2:42 1 3 mph 1018.9mb 65f 66f
2:36 1 2 mph 1019mb 65f 66f
2:30 2 3 mph 1019mb 65f 67f
2:24 1 2 mph 1019.1mb 65f 66f
2:18  -  2 mph 1019.2mb 65f 67f
2:12 2 3 mph 1019.4mb 65f 67f
2:00 2 3 mph 1019.4mb 65f 65f
1:54 2 3 mph 1019.4mb 65f 65f
1:48 3
mph
1019.5mb 65f 66f
1:42 1 2 mph 1019.4mb 65f 69f
1:36  -  1 mph 1019.5mb 65f 68f
1:30 1
mph
1019.5mb 65f 68f
1:24  -  1 mph 1019.4mb 65f 68f
1:18 1 2 mph 1019.5mb 65f 68f
1:12 1 2 mph 1019.5mb 65f 68f
1:06 2
mph
1019.5mb 65f 67f
1:00 2 3 mph 1019.5mb 65f 67f
12:54 2 3 mph 1019.6mb 65f 66f
12:48 2
mph
1019.7mb 65f 66f
12:42 1 2 mph 1019.8mb 65f 66f
12:36  -  1 mph 1019.8mb 65f 66f
12:30  -  mph 1019.8mb 65f 65f
12:24  -  1 mph 1019.8mb 65f 66f
12:18 1 2 mph 1019.9mb 65f 66f
12:12 1 2 mph 1019.9mb 65f 66f
12:06 2
mph
1019.9mb 65f 67f
12:00 2 3 mph 1019.9mb 65f 67f
Mi 11/26 11:54 1
mph
1020mb 65f 66f
11:48  -  1 mph 1020mb 65f 65f
11:42  -  1 mph 1020.1mb 65f 65f
11:36  -  1 mph 1020.1mb 65f 65f
11:30  -  1 mph 1020.2mb 65f 66f
11:24  -  2 mph 1020.2mb 65f 66f
11:18 1 2 mph 1020.3mb 65f 67f
11:12 3 6 mph 1020.4mb 65f 68f
11:06 6 7 mph 1020.3mb 65f 68f
11:00 5 6 mph 1020.3mb 65f 68f
10:54 6 7 mph 1020.3mb 65f 67f
10:48 2 6 mph 1020.4mb 65f 66f
10:42 5
mph
1020.3mb 65f 65f
10:36 2 3 mph 1020.4mb 65f 65f
10:30  -  5 mph 1020.3mb 65f 65f
10:24 3 5 mph 1020.3mb 65f 65f
10:18 2 3 mph 1020.3mb 65f 64f
10:12 3 5 mph 1020.3mb 65f 65f
10:06 3 5 mph 1020.4mb 65f 65f
10:00 3 5 mph 1020.4mb 65f 65f
9:54 3 6 mph 1020.4mb 65f 65f
9:48 6 7 mph 1020.4mb 65f 65f
9:42 5 6 mph 1020.4mb 65f 64f
9:36 6
mph
1020.4mb 65f 65f
9:30 6
mph
1020.5mb 65f 65f
9:24 5 6 mph 1020.5mb 65f 64f
9:18 3 5 mph 1020.5mb 65f 64f
9:12 3
mph
1020.6mb 65f 64f
9:06 5 7 mph 1020.6mb 65f 64f
9:00 7 8 mph 1020.6mb 65f 65f
8:54 6 7 mph 1020.6mb 65f 65f
8:48 6
mph
1020.5mb 65f 65f
8:42 5 6 mph 1020.5mb 65f 65f
8:36 5
mph
1020.5mb 65f 65f
8:30 5 6 mph 1020.5mb 65f 65f
8:24 5 6 mph 1020.5mb 65f 65f
8:18 5
mph
1020.6mb 65f 65f
8:12 3 5 mph 1020.7mb 65f 65f
8:06 2 3 mph 1020.7mb 65f 65f
8:00 2 3 mph 1020.7mb 65f 65f
7:54 3 6 mph 1020.6mb 65f 65f
7:48 6 7 mph 1020.5mb 65f 65f
7:42 6 8 mph 1020.5mb 65f 65f
7:36 8
mph
1020.4mb 65f 65f
7:30 7 8 mph 1020.4mb 65f 65f
7:24 7 8 mph 1020.4mb 65f 65f
7:18 8
mph
1020.4mb 65f 65f
7:12 6 7 mph 1020.4mb 65f 65f
7:06 7
mph
1020.4mb 65f 65f
7:00 5
mph
1020.5mb 65f 65f
6:54 5
mph
1020.5mb 65f 65f
6:48 3 5 mph 1020.5mb 65f 64f
6:42 2 3 mph 1020.4mb 65f 64f
6:36 3
mph
1020.5mb 65f 64f
6:30 3
mph
1020.4mb 65f 64f
6:24 5
mph
1020.4mb 65f 64f
6:18 5
mph
1020.4mb 65f 65f
6:12 5 6 mph 1020.4mb 65f 65f
6:06 5 6 mph 1020.4mb 65f 65f
6:00 6
mph
1020.3mb 65f 65f
5:54 3 5 mph 1020.3mb 65f 66f
5:48 5
mph
1020.3mb 65f 65f
5:42 3
mph
1020.4mb 65f 66f
5:36 3
mph
1020.3mb 65f 66f
5:30 3
mph
1020.4mb 65f 65f
5:24 3 5 mph 1020.4mb 65f 65f
5:18 3
mph
1020.4mb 65f 66f
5:12 2
mph
1020.4mb 65f 66f
4:54 2 3 mph 1020.5mb 65f 67f
4:48 1 2 mph 1020.5mb 65f 68f
4:42 1 2 mph 1020.5mb 65f 69f
4:36 1
mph
1020.5mb 65f 70f
4:24 1 2 mph 1020.6mb 65f 69f
4:18 2
mph
1020.6mb 65f 69f
4:12 1 3 mph 1020.6mb 65f 69f
4:06 2 3 mph 1020.6mb 65f 69f
4:00 2
mph
1020.6mb 65f 70f
3:54 2 3 mph 1020.5mb 65f 69f
3:48 1 3 mph 1020.6mb 65f 70f
3:42 3
mph
1020.6mb 65f 69f
3:36 1 3 mph 1020.6mb 65f 70f
3:30 2 5 mph 1020.7mb 65f 70f
3:24 5
mph
1020.7mb 65f 69f
3:18 3 5 mph 1020.7mb 65f 70f
3:12 3 5 mph 1020.7mb 65f 70f
3:06 2 6 mph 1020.8mb 65f 71f
3:00 2
mph
1020.8mb 65f 72f
2:54 2
mph
1020.8mb 65f 74f
2:48 1 2 mph 1020.8mb 65f 74f
2:42 1 2 mph 1020.9mb 65f 74f
2:36 1 2 mph 1020.9mb 65f 73f
2:30 2 3 mph 1021mb 65f 73f
2:24 1 3 mph 1020.9mb 65f 73f
2:18 1 2 mph 1020.9mb 65f 73f
2:12 2
mph
1021mb 65f 73f
2:06 1 2 mph 1021mb 65f 73f
2:00 1 2 mph 1021mb 65f 73f
1:54  -  2 mph 1021mb 65f 72f
1:48 2 3 mph 1021mb 65f 71f
1:42 1 3 mph 1021mb 65f 72f
1:36 2 3 mph 1021.1mb 65f 71f
1:30 1 5 mph 1021.1mb 65f 71f
1:24 3 5 mph 1021.2mb 65f 70f
1:18 3 5 mph 1021.2mb 65f 70f
1:12 3 6 mph 1021.3mb 65f 70f
1:06 5 6 mph 1021.4mb 65f 69f
1:00 6 7 mph 1021.5mb 65f 69f
12:54 6 8 mph 1021.5mb 65f 68f
12:48 7 8 mph 1021.6mb 65f 68f
12:42 7 8 mph 1021.7mb 65f 68f
12:36 7 9 mph 1021.8mb 64f 68f
12:30 8 9 mph 1021.9mb 64f 67f
12:24 7 8 mph 1022mb 64f 67f
12:18 8 9 mph 1022.1mb 64f 67f
12:12 6 7 mph 1022.1mb 64f 68f
12:06 5 6 mph 1022.2mb 64f 68f
12:00 6
mph
1022.4mb 64f 68f
11:54 6
mph
1022.5mb 64f 67f
11:48 6
mph
1022.6mb 64f 67f
11:42 5 6 mph 1022.7mb 64f 68f
11:36 3 5 mph 1022.7mb 64f 69f
11:30 3 5 mph 1022.9mb 64f 68f
11:24 2 3 mph 1023mb 64f 68f
11:18 3
mph
1023.2mb 64f 67f
11:12 3 5 mph 1023.3mb 64f 66f
11:06 3 5 mph 1023.3mb 64f 66f
11:00 2 5 mph 1023.4mb 64f 67f
10:54 5 6 mph 1023.5mb 64f 66f
10:48 5 6 mph 1023.6mb 64f 66f
10:42 3 6 mph 1023.6mb 64f 66f
10:36 3 5 mph 1023.8mb 64f 66f
10:30 5
mph
1023.9mb 64f 66f
10:24 5
mph
1023.9mb 64f 65f
10:18 3
mph
1024mb 64f 65f
10:12 3
mph
1024mb 64f 65f
10:00 2
mph
1024.1mb 64f 66f
9:54 1
mph
1024.2mb 64f 66f
9:48 1
mph
1024.2mb 64f 66f
9:42 1
mph
1024.2mb 64f 66f
9:36 1
mph
1024.3mb 64f 66f
9:30 1 2 mph 1024.3mb 64f 66f
9:24  -  1 mph 1024.3mb 64f 66f
9:18  -  1 mph 1024.3mb 64f 66f
9:12  -  1 mph 1024.3mb 64f 65f
9:06 1 2 mph 1024.3mb 64f 64f
9:00 2
mph
1024.2mb 64f 64f
8:54  -  1 mph 1024.2mb 64f 64f
8:42 1 2 mph 1024.1mb 64f 63f
8:36 1 2 mph 1024.1mb 64f 63f
8:30 2
mph
1024.1mb 64f 63f
8:24 2
mph
1024.1mb 64f 64f
8:18 2 3 mph 1024mb 64f 65f
8:12 2 3 mph 1024mb 64f 65f
8:06 1
mph
1024mb 64f 65f
8:00 1 3 mph 1023.9mb 64f 64f
7:54 3
mph
1023.8mb 64f 63f
7:48 3 5 mph 1023.8mb 64f 62f
7:42 5
mph
1023.8mb 64f 62f
7:36 3 5 mph 1023.8mb 64f 61f
7:30 5
mph
1023.8mb 64f 61f
7:24 3
mph
1023.8mb 64f 60f
7:18 2
mph
1023.8mb 64f 59f
7:12 1
mph
1023.8mb 64f 59f
7:06 1 3 mph 1023.7mb 64f 59f
7:00 2 3 mph 1023.6mb 64f 58f
6:54 5
mph
1023.6mb 64f 58f
6:48 3 5 mph 1023.5mb 64f 59f
6:42 3
mph
1023.6mb 64f 60f
6:36 3
mph
1023.5mb 64f 60f
6:30 3 5 mph 1023.4mb 64f 60f
6:24 2 3 mph 1023.4mb 64f 60f
6:18 2 3 mph 1023.4mb 64f 59f
6:12 1 3 mph 1023.3mb 64f 60f
6:06 1
mph
1023.3mb 64f 61f
6:00 1 2 mph 1023.3mb 64f 60f
5:54 1 2 mph 1023.3mb 64f 60f
5:48 1
mph
1023.3mb 64f 59f
5:42  -  2 mph 1023.3mb 64f 60f
5:36 2 3 mph 1023.3mb 64f 60f
5:30 5 6 mph 1023.2mb 64f 60f
5:24 5 6 mph 1023.2mb 64f 58f
5:18 1 6 mph 1023.2mb 64f 58f
5:12 5 7 mph 1023.3mb 64f 59f
5:06 6 9 mph 1023.3mb 64f 59f
5:00 8
mph
1023.3mb 64f 60f
4:54 8 10 mph 1023.3mb 64f 61f
4:48 3 5 mph 1023.3mb 64f 59f
4:42 3 6 mph 1023.2mb 64f 59f
4:36 2 3 mph 1023.2mb 64f 61f
4:30 3 5 mph 1023.1mb 64f 61f
4:24 3 5 mph 1023.2mb 64f 60f
4:18 3 5 mph 1023.2mb 64f 60f
4:12 2 5 mph 1023.3mb 64f 60f
4:06 5 6 mph 1023.4mb 64f 60f
4:00 6
mph
1023.3mb 64f 60f
3:54 5 6 mph 1023.4mb 64f 61f
3:48 5 6 mph 1023.5mb 64f 61f
3:42 5 6 mph 1023.5mb 64f 60f
3:36 6
mph
1023.5mb 64f 61f
3:30 5 6 mph 1023.6mb 64f 60f
3:24 5 6 mph 1023.7mb 64f 61f
3:18 3 5 mph 1023.8mb 64f 60f
3:12 1 2 mph 1023.8mb 64f 61f
3:06 1 2 mph 1023.8mb 64f 62f
3:00 2
mph
1023.8mb 64f 61f
2:54 2
mph
1023.9mb 64f 61f
2:48 2 3 mph 1023.9mb 64f 61f
2:42 3
mph
1023.9mb 64f 61f
2:36 2
mph
1023.9mb 64f 61f
2:30 2
mph
1024mb 64f 60f
2:24 2
mph
1023.9mb 64f 60f
2:18 2
mph
1023.9mb 64f 60f
2:12 2 3 mph 1023.9mb 64f 60f
2:06 2 5 mph 1023.9mb 64f 60f
2:00 5 6 mph 1024mb 64f 60f
1:54 6 7 mph 1024mb 64f 60f
1:48 3 6 mph 1024mb 64f 61f
1:42 3 5 mph 1024mb 64f 61f
1:36 2 5 mph 1024mb 64f 62f
1:30 5 6 mph 1024.1mb 64f 62f
1:24 6 7 mph 1024.1mb 64f 63f
1:18 6 7 mph 1024.2mb 64f 63f
1:12 6 7 mph 1024.3mb 64f 62f
1:06 6 7 mph 1024.2mb 64f 62f
1:00 3 6 mph 1024.3mb 64f 62f
12:54 6 7 mph 1024.3mb 64f 62f
12:48 6 8 mph 1024.4mb 64f 62f
12:42 7 8 mph 1024.5mb 64f 62f
12:36 6
mph
1024.6mb 64f 62f
12:30 3 5 mph 1024.7mb 64f 63f
12:24 3 6 mph 1024.8mb 64f 64f
12:18 5 6 mph 1024.9mb 64f 64f
12:12 3
mph
1025mb 64f 63f
12:06 2
mph
1025.1mb 64f 62f
12:00 2
mph
1025.1mb 64f 62f
Di 11/25 11:54 2
mph
1025.2mb 64f 62f
11:48 2 3 mph 1025.1mb 64f 62f
11:42 3 5 mph 1025.1mb 64f 62f
11:36 2 5 mph 1025.1mb 64f 63f
11:30 3 5 mph 1025.1mb 64f 63f
11:24 5
mph
1025.1mb 64f 63f
11:18 5 6 mph 1025.2mb 64f 63f
11:12 5 6 mph 1025.3mb 64f 63f
11:06 3 5 mph 1025.3mb 64f 62f
11:00 2 5 mph 1025.4mb 64f 63f
10:54 5
mph
1025.4mb 64f 63f
10:48 2 3 mph 1025.5mb 64f 63f
10:42 1 3 mph 1025.5mb 64f 64f
10:36 3 6 mph 1025.5mb 64f 64f
10:30 5 6 mph 1025.5mb 64f 64f
10:24 3 5 mph 1025.5mb 64f 64f
10:18 5 7 mph 1025.6mb 64f 64f
10:12 6 7 mph 1025.6mb 64f 64f
10:06 7
mph
1025.6mb 64f 64f
10:00 6 7 mph 1025.6mb 64f 65f
9:54 7 8 mph 1025.6mb 64f 64f
9:48 7 8 mph 1025.6mb 64f 64f
9:42 5 6 mph 1025.5mb 64f 64f
9:36 6 7 mph 1025.5mb 64f 64f
9:30 6 8 mph 1025.5mb 64f 64f
9:24 7 8 mph 1025.5mb 64f 64f
9:18 6 7 mph 1025.6mb 64f 64f
9:12 6 7 mph 1025.6mb 64f 64f
9:06 5 7 mph 1025.6mb 64f 64f
9:00 5 8 mph 1025.7mb 64f 64f
8:54 8
mph
1025.7mb 64f 64f
8:48 6 7 mph 1025.7mb 64f 64f
8:42 7 8 mph 1025.6mb 64f 64f
8:36 8 9 mph 1025.6mb 64f 65f
8:30 6 7 mph 1025.6mb 64f 64f
8:24 6 7 mph 1025.6mb 64f 64f
8:18 5 6 mph 1025.6mb 64f 64f
8:12 5 6 mph 1025.5mb 64f 64f
8:06 5 6 mph 1025.4mb 64f 65f
8:00 5 6 mph 1025.4mb 64f 65f
7:54 3 5 mph 1025.4mb 64f 65f
7:48 5
mph
1025.4mb 64f 65f
7:42 2 5 mph 1025.4mb 64f 65f
7:36 5
mph
1025.4mb 64f 65f
7:30 5 6 mph 1025.4mb 64f 65f
7:24 5 7 mph 1025.4mb 64f 65f
7:18 6 7 mph 1025.5mb 64f 65f
7:12 3 6 mph 1025.4mb 64f 65f
7:06 6 8 mph 1025.4mb 64f 65f
7:00 6 8 mph 1025.4mb 64f 65f
6:54 7 8 mph 1025.4mb 64f 65f
6:48 6 7 mph 1025.3mb 64f 65f
6:42 6
mph
1025.2mb 64f 65f
6:36 6 8 mph 1025.1mb 64f 65f
6:30 6 7 mph 1025.1mb 64f 65f
6:24 5 7 mph 1025.1mb 64f 65f
6:18 7 9 mph 1025mb 64f 65f
6:12 7 8 mph 1025mb 64f 65f
6:06 5 7 mph 1025mb 64f 65f
6:00 6 8 mph 1025mb 64f 65f
5:54 6 8 mph 1025mb 64f 65f
5:48 6 8 mph 1025mb 64f 65f
5:42 7
mph
1025mb 64f 65f
5:36 7 8 mph 1025mb 65f 65f
5:30 7
mph
1024.9mb - 65f
5:24 7
mph
1024.9mb - 65f
5:18 5 6 mph 1024.9mb 65f 65f
5:12 6 7 mph 1024.9mb 65f 66f
5:06 6 7 mph 1024.9mb 65f 66f
5:00 6 7 mph 1024.9mb 65f 66f
4:54 7
mph
1024.9mb 65f 66f
4:48 6
mph
1024.9mb 65f 66f
4:42 5 6 mph 1024.9mb 65f 66f
4:36 6 7 mph 1024.9mb 65f 66f
4:30 5 6 mph 1024.9mb 65f 67f
4:24 3 6 mph 1024.9mb 65f 66f
4:18 6 7 mph 1024.9mb 65f 67f
4:12 5 8 mph 1025mb 65f 67f
4:06 6 7 mph 1024.9mb 65f 67f
4:00 6 8 mph 1024.9mb 65f 67f
3:54 7
mph
1024.9mb 65f 67f
3:48 6 8 mph 1024.9mb 65f 67f
3:42 7 8 mph 1024.9mb 65f 67f
3:36 7 9 mph 1025mb 65f 68f
3:30 8 9 mph 1025mb 64f 67f
3:24 8 9 mph 1025mb 64f 68f
3:18 8 10 mph 1025mb 64f 67f
3:12 9 10 mph 1025mb 64f 67f
3:06 8 9 mph 1025.1mb 64f 67f
3:00 8 9 mph 1025.1mb 64f 67f
2:54 8 10 mph 1025.1mb 64f 67f
2:48 8 9 mph 1025.2mb 64f 68f
2:42 9 10 mph 1025.2mb 64f 68f
2:36 8 9 mph 1025.2mb 64f 68f
2:30 7 8 mph 1025.2mb 64f 68f
2:24 8 9 mph 1025.2mb 64f 68f
2:18 8
mph
1025.3mb 64f 68f
2:12 7 8 mph 1025.3mb 64f 68f
2:06 6 7 mph 1025.4mb 64f 68f
2:00 3 5 mph 1025.4mb 64f 69f
1:54 2 6 mph 1025.4mb 64f 70f
1:48 5 7 mph 1025.5mb 64f 68f
1:42 7 9 mph 1025.5mb 64f 69f
1:36 7 8 mph 1025.5mb 64f 68f
1:30 7 8 mph 1025.6mb 64f 68f
1:24 7 8 mph 1025.7mb 64f 68f
1:18 6 8 mph 1025.8mb 64f 68f
1:12 6 7 mph 1025.8mb 64f 69f
1:06 5 8 mph 1025.9mb 64f 69f
1:00 6 8 mph 1026mb 64f 69f
12:54 8
mph
1026.1mb 64f 68f
12:48 7 8 mph 1026.1mb 64f 69f
12:42 8
mph
1026.3mb 64f 69f
12:36 8
mph
1026.3mb 64f 69f
12:30 7 8 mph 1026.4mb 64f 68f
12:24 6 7 mph 1026.5mb 64f 67f
12:18 3 6 mph 1026.6mb 64f 70f
12:12 3 6 mph 1026.7mb 64f 70f
12:06 3 6 mph 1026.8mb 64f 69f
12:00 6 7 mph 1026.9mb 64f 69f
11:54 6 7 mph 1027mb 64f 69f
11:48 7
mph
1027.2mb 64f 69f
11:42 6
mph
1027.3mb 64f 69f
11:36 6
mph
1027.4mb 64f 69f
11:30 6 7 mph 1027.6mb 64f 69f
11:24 7
mph
1027.7mb 64f 69f
11:18 7
mph
1027.8mb 64f 68f
11:12 6 7 mph 1028mb 64f 67f
11:06 6
mph
1028mb 64f 67f
11:00 6
mph
1028mb 64f 68f
10:54 6 7 mph 1028.1mb 64f 68f
10:48 7
mph
1028.2mb 64f 66f
10:42 6 7 mph 1028.4mb 64f 68f
10:36 6
mph
1028.5mb 64f 68f
10:30 2 3 mph 1028.6mb 64f 71f
10:24 2 7 mph 1028.7mb 64f 73f
10:18 5 8 mph 1028.9mb 64f 74f
10:06 6 9 mph 1029mb 64f 73f
10:00 9 11 mph 1029.1mb 64f 73f
9:54 8 10 mph 1029.1mb 64f 72f
9:48 7 10 mph 1029.1mb 64f 72f
9:42 7 11 mph 1029.2mb 64f 72f
9:36 8 11 mph 1029.3mb 64f 72f
9:30 7 11 mph 1029.3mb 64f 72f
9:24 7 11 mph 1029.3mb 64f 72f
9:18 10 11 mph 1029.2mb 64f 71f
9:12 7 9 mph 1029.2mb 64f 71f
9:06 7 11 mph 1029.2mb 64f 71f
9:00 7 10 mph 1029.2mb 64f 71f